Time;durP1;ratioP1;P1;durP2;ratioP2;P2;SDS_P1;SDS_P2;PMS_P1;PMS_P2;Temp;Humidity;BMP_temperature;BMP_pressure;BME280_temperature;BME280_humidity;BME280_pressure;Samples;Min_cycle;Max_cycle;Signal;HPM_P1;HPM_P2
2023/10/11 00:02:17;;;;;;;10.60;4.72;;;;;;;;;;4940888;28;20111;-75
2023/10/11 00:04:48;;;;;;;10.95;4.35;;;;;;;;;;4975250;28;20483;-75
2023/10/11 00:07:18;;;;;;;10.38;4.07;;;;;;;;;;4975598;28;20039;-75
2023/10/11 00:09:44;;;;;;;13.40;3.85;;;;;;;;;;4975412;28;20050;-76
2023/10/11 00:12:11;;;;;;;10.38;3.75;;;;;;;;;;4976697;28;20105;-76
2023/10/11 00:14:39;;;;;;;9.13;3.83;;;;;;;;;;4975153;28;20634;-76
2023/10/11 00:17:09;;;;;;;9.10;3.63;;;;;;;;;;4975269;28;20038;-75
2023/10/11 00:19:34;;;;;;;12.38;3.92;;;;;;;;;;4975245;28;20031;-76
2023/10/11 00:22:00;;;;;;;10.50;3.58;;;;;;;;;;4976305;28;20042;-76
2023/10/11 00:24:28;;;;;;;11.90;4.30;;;;;;;;;;4975020;28;20043;-75
2023/10/11 00:26:55;;;;;;;14.60;4.50;;;;;;;;;;4975227;28;20081;-76
2023/10/11 00:29:21;;;;;;;8.68;3.78;;;;;;;;;;4976248;28;20677;-76
2023/10/11 00:31:46;;;;;;;11.25;3.63;;;;;;;;;;4974985;28;20035;-75
2023/10/11 00:34:12;;;;;;;8.85;3.58;;;;;;;;;;4974638;28;20031;-76
2023/10/11 00:36:39;;;;;;;9.70;3.38;;;;;;;;;;4976201;28;20073;-77
2023/10/11 00:39:07;;;;;;;8.90;3.28;;;;;;;;;;4976220;28;20035;-77
2023/10/11 00:41:34;;;;;;;;;;;;;;;;;;4975255;28;20077;-76
2023/10/11 00:43:59;;;;;;;12.05;4.30;;;;;;;;;;4974552;28;19916;-77
2023/10/11 00:46:27;;;;;;;13.98;3.97;;;;;;;;;;4975061;28;20398;-77
2023/10/11 00:48:54;;;;;;;11.50;3.85;;;;;;;;;;4974800;28;20026;-75
2023/10/11 00:51:29;;;;;;;10.27;3.55;;;;;;;;;;4974859;28;20042;-77
2023/10/11 00:53:56;;;;;;;9.82;3.70;;;;;;;;;;4974857;28;20522;-76
2023/10/11 00:56:21;;;;;;;10.45;3.92;;;;;;;;;;4975449;28;20450;-77
2023/10/11 00:58:50;;;;;;;10.60;4.15;;;;;;;;;;4975608;28;20094;-76
2023/10/11 01:01:16;;;;;;;12.65;4.30;;;;;;;;;;4976451;28;20438;-76
2023/10/11 01:03:41;;;;;;;11.48;4.38;;;;;;;;;;4977090;28;20161;-76
2023/10/11 01:06:10;;;;;;;13.88;4.88;;;;;;;;;;4976575;28;20062;-76
2023/10/11 01:08:39;;;;;;;9.77;4.10;;;;;;;;;;4958529;28;20078;-76
2023/10/11 01:11:07;;;;;;;11.40;4.03;;;;;;;;;;4958305;28;20419;-76
2023/10/11 01:13:33;;;;;;;11.90;4.35;;;;;;;;;;4973107;28;20026;-76
2023/10/11 01:15:58;;;;;;;11.27;3.85;;;;;;;;;;4974053;28;20023;-76
2023/10/11 01:18:24;;;;;;;13.05;4.50;;;;;;;;;;4975704;28;20082;-76
2023/10/11 01:20:51;;;;;;;11.80;4.22;;;;;;;;;;4974111;28;20029;-76
2023/10/11 01:23:16;;;;;;;14.95;4.18;;;;;;;;;;4958295;28;20042;-77
2023/10/11 01:25:42;;;;;;;13.80;4.00;;;;;;;;;;4975223;28;20379;-77
2023/10/11 01:28:07;;;;;;;13.93;4.28;;;;;;;;;;4973965;28;20039;-75
2023/10/11 01:30:33;;;;;;;12.85;4.40;;;;;;;;;;4973996;28;20033;-75
2023/10/11 01:32:59;;;;;;;15.50;4.60;;;;;;;;;;4957666;28;20101;-76
2023/10/11 01:35:35;;;;;;;9.38;4.82;;;;;;;;;;4941760;28;20098;-75
2023/10/11 01:38:04;;;;;;;11.65;4.05;;;;;;;;;;4975228;28;20058;-76
2023/10/11 01:40:31;;;;;;;20.35;5.85;;;;;;;;;;4973803;28;20030;-77
2023/10/11 01:42:57;;;;;;;17.35;5.18;;;;;;;;;;4973757;28;20034;-75
2023/10/11 01:45:25;;;;;;;10.98;4.35;;;;;;;;;;4974933;28;20057;-76
2023/10/11 01:47:51;;;;;;;12.55;3.83;;;;;;;;;;4973689;28;20134;-77
2023/10/11 01:50:17;;;;;;;10.25;3.58;;;;;;;;;;4975014;28;20062;-75
2023/10/11 01:52:43;;;;;;;10.20;4.25;;;;;;;;;;4973522;28;20391;-76
2023/10/11 01:55:13;;;;;;;13.02;4.70;;;;;;;;;;4972960;28;20035;-76
2023/10/11 01:57:39;;;;;;;10.15;4.40;;;;;;;;;;4957781;28;20077;-76
2023/10/11 02:00:13;;;;;;;9.48;4.25;;;;;;;;;;4973533;28;20032;-76
2023/10/11 02:02:52;;;;;;;13.75;4.55;;;;;;;;;;4957735;28;20062;-77
2023/10/11 02:05:21;;;;;;;10.50;4.30;;;;;;;;;;4973232;28;20039;-76
2023/10/11 02:07:47;;;;;;;10.90;4.32;;;;;;;;;;4973728;28;20469;-77
2023/10/11 02:10:12;;;;;;;12.23;4.70;;;;;;;;;;4979495;28;20058;-77
2023/10/11 02:12:45;;;;;;;18.33;5.22;;;;;;;;;;4982812;28;20031;-76
2023/10/11 02:15:29;;;;;;;11.93;4.38;;;;;;;;;;4972864;28;20554;-76
2023/10/11 02:17:55;;;;;;;12.07;4.45;;;;;;;;;;4974627;28;20391;-76
2023/10/11 02:20:22;;;;;;;12.07;4.47;;;;;;;;;;4973003;28;20023;-76
2023/10/11 02:22:53;;;;;;;13.55;4.47;;;;;;;;;;4957105;28;20046;-77
2023/10/11 02:25:19;;;;;;;11.20;3.97;;;;;;;;;;4956367;28;20033;-76
2023/10/11 02:27:50;;;;;;;13.50;5.03;;;;;;;;;;4973051;28;20027;-76
2023/10/11 02:30:22;;;;;;;16.23;5.22;;;;;;;;;;4941429;28;20035;-77
2023/10/11 02:32:49;;;;;;;14.57;5.03;;;;;;;;;;4972784;28;20105;-76
2023/10/11 02:35:17;;;;;;;14.45;4.88;;;;;;;;;;4956412;28;20471;-75
2023/10/11 02:37:45;;;;;;;12.77;4.88;;;;;;;;;;4956699;28;20375;-75
2023/10/11 02:40:22;;;;;;;15.07;6.15;;;;;;;;;;4940974;28;20499;-77
2023/10/11 02:42:49;;;;;;;20.20;5.57;;;;;;;;;;4956755;28;20443;-76
2023/10/11 02:45:19;;;;;;;15.35;4.95;;;;;;;;;;4973493;28;20077;-76
2023/10/11 02:47:48;;;;;;;11.77;4.90;;;;;;;;;;4972524;28;20406;-76
2023/10/11 02:50:13;;;;;;;10.80;4.85;;;;;;;;;;4972736;28;20494;-76
2023/10/11 02:52:40;;;;;;;12.63;4.45;;;;;;;;;;4973779;28;20031;-76
2023/10/11 02:57:44;;;;;;;11.68;3.95;;;;;;;;;;4973845;28;20031;-77
2023/10/11 03:00:28;;;;;;;13.27;4.63;;;;;;;;;;4973618;28;20018;-77
2023/10/11 03:02:54;;;;;;;14.35;4.32;;;;;;;;;;4972340;28;20041;-76
2023/10/11 03:05:26;;;;;;;12.27;4.13;;;;;;;;;;4973337;28;20402;-75
2023/10/11 03:07:53;;;;;;;18.17;4.60;;;;;;;;;;4972660;28;20038;-76
2023/10/11 03:10:19;;;;;;;16.23;4.40;;;;;;;;;;4973649;28;20110;-78
2023/10/11 03:12:44;;;;;;;15.20;4.15;;;;;;;;;;4972147;28;20135;-76
2023/10/11 03:15:11;;;;;;;18.35;4.60;;;;;;;;;;4971973;28;20109;-76
2023/10/11 03:17:45;;;;;;;15.45;4.40;;;;;;;;;;4972166;28;20034;-75
2023/10/11 03:20:36;;;;;;;11.80;5.00;;;;;;;;;;4971934;28;20038;-75
2023/10/11 03:23:03;;;;;;;15.32;5.50;;;;;;;;;;4956074;28;20046;-76
2023/10/11 03:25:29;;;;;;;;;;;;;;;;;;4956186;28;20101;-77
2023/10/11 03:27:54;;;;;;;16.05;4.05;;;;;;;;;;4956058;28;20004;-76
2023/10/11 03:30:24;;;;;;;11.82;4.93;;;;;;;;;;4972079;28;20376;-76
2023/10/11 03:32:50;;;;;;;14.48;5.15;;;;;;;;;;4971658;28;20027;-76
2023/10/11 03:35:18;;;;;;;11.82;4.63;;;;;;;;;;4972957;28;20534;-76
2023/10/11 03:37:59;;;;;;;16.40;5.55;;;;;;;;;;4974958;28;20023;-76
2023/10/11 03:40:34;;;;;;;15.30;4.43;;;;;;;;;;4975983;28;20051;-77
2023/10/11 03:43:11;;;;;;;18.75;4.95;;;;;;;;;;4960056;28;20035;-76
2023/10/11 03:45:39;;;;;;;12.15;4.45;;;;;;;;;;4977263;28;20035;-77
2023/10/11 03:48:09;;;;;;;12.00;4.07;;;;;;;;;;4977653;28;20066;-77
2023/10/11 03:50:36;;;;;;;12.48;4.65;;;;;;;;;;4977690;28;20037;-76
2023/10/11 03:53:11;;;;;;;13.82;4.65;;;;;;;;;;4976358;28;20027;-76
2023/10/11 03:55:49;;;;;;;12.73;4.28;;;;;;;;;;4977248;28;20078;-76
2023/10/11 04:01:04;;;;;;;12.77;5.00;;;;;;;;;;4975882;28;20053;-76
2023/10/11 04:03:29;;;;;;;10.10;4.60;;;;;;;;;;4976515;28;20505;-75
2023/10/11 04:05:58;;;;;;;11.13;4.65;;;;;;;;;;4977026;28;20030;-76
2023/10/11 04:08:25;;;;;;;14.88;4.75;;;;;;;;;;4976020;28;20034;-75
2023/10/11 04:10:51;;;;;;;11.48;4.20;;;;;;;;;;4977012;28;20089;-77
2023/10/11 04:13:24;;;;;;;16.65;5.10;;;;;;;;;;4976693;28;20045;-76
2023/10/11 04:15:50;;;;;;;14.95;4.68;;;;;;;;;;4946721;28;20525;-76
2023/10/11 04:18:33;;;;;;;13.23;4.45;;;;;;;;;;4963774;28;20039;-76
2023/10/11 04:21:16;;;;;;;12.90;4.20;;;;;;;;;;4961058;28;20042;-76
2023/10/11 04:23:44;;;;;;;16.10;4.43;;;;;;;;;;4976083;28;20034;-76
2023/10/11 04:28:54;;;;;;;15.27;4.78;;;;;;;;;;4975552;28;20030;-76
2023/10/11 04:31:31;;;;;;;12.38;3.95;;;;;;;;;;4977885;28;20026;-78
2023/10/11 04:33:58;;;;;;;16.27;4.85;;;;;;;;;;4976405;28;20022;-77
2023/10/11 04:36:24;;;;;;;15.73;5.03;;;;;;;;;;4975232;28;20057;-78
2023/10/11 04:38:50;;;;;;;18.65;4.97;;;;;;;;;;4976947;28;20031;-77
2023/10/11 04:41:18;;;;;;;13.27;5.13;;;;;;;;;;4975368;28;20034;-77
2023/10/11 04:43:50;;;;;;;;;;;;;;;;;;4977824;28;20086;-77
2023/10/11 04:46:16;;;;;;;14.60;4.80;;;;;;;;;;4980815;28;19997;-77
2023/10/11 04:48:42;;;;;;;15.32;5.78;;;;;;;;;;4984805;28;20045;-76
2023/10/11 04:51:21;;;;;;;14.30;5.50;;;;;;;;;;4981807;28;20031;-76
2023/10/11 04:59:07;;;;;;;14.10;4.97;;;;;;;;;;4975092;28;20062;-77
2023/10/11 05:01:58;;;;;;;17.40;4.80;;;;;;;;;;4976031;28;20034;-76
2023/10/11 05:04:28;;;;;;;13.27;5.15;;;;;;;;;;4975576;28;20031;-76
2023/10/11 05:06:54;;;;;;;12.07;4.47;;;;;;;;;;4975858;28;20027;-76
2023/10/11 05:19:45;;;;;;;13.77;5.18;;;;;;;;;;4975768;28;20023;-78
2023/10/11 05:22:16;;;;;;;15.32;4.82;;;;;;;;;;4975370;28;20561;-77
2023/10/11 05:32:50;;;;;;;10.82;3.95;;;;;;;;;;4975587;28;20030;-78
2023/10/11 05:51:28;;;;;;;19.02;4.40;;;;;;;;;;4975012;28;20109;-76
2023/10/11 05:53:54;;;;;;;13.98;4.57;;;;;;;;;;4974496;28;20482;-76
2023/10/11 05:56:22;;;;;;;11.82;4.55;;;;;;;;;;4974663;28;20039;-77
2023/10/11 05:58:55;;;;;;;11.85;4.07;;;;;;;;;;4957718;28;20106;-76
2023/10/11 06:01:21;;;;;;;10.48;4.32;;;;;;;;;;4957199;28;20042;-76
2023/10/11 06:03:51;;;;;;;14.85;4.63;;;;;;;;;;4973202;28;20490;-76
2023/10/11 06:09:17;;;;;;;18.13;4.47;;;;;;;;;;4952133;28;20138;-77
2023/10/11 06:11:48;;;;;;;16.73;5.15;;;;;;;;;;4974661;28;20102;-77
2023/10/11 06:14:17;;;;;;;13.25;4.95;;;;;;;;;;4974128;28;20027;-76
2023/10/11 06:16:49;;;;;;;17.00;4.53;;;;;;;;;;4978046;28;20486;-77
2023/10/11 06:19:26;;;;;;;16.40;4.70;;;;;;;;;;4960143;28;20467;-77
2023/10/11 06:22:10;;;;;;;13.20;4.32;;;;;;;;;;4957162;28;20558;-77
2023/10/11 06:24:39;;;;;;;12.80;4.05;;;;;;;;;;4972899;28;20039;-76
2023/10/11 06:29:37;;;;;;;11.55;4.97;;;;;;;;;;4975087;28;20031;-76
2023/10/11 06:32:11;;;;;;;20.45;5.10;;;;;;;;;;4973876;28;20122;-76
2023/10/11 06:34:36;;;;;;;14.02;4.10;;;;;;;;;;4974424;28;20061;-77
2023/10/11 06:37:02;;;;;;;15.80;4.53;;;;;;;;;;4974672;28;20055;-78
2023/10/11 06:42:12;;;;;;;14.13;4.97;;;;;;;;;;4973086;28;20421;-77
2023/10/11 06:44:48;;;;;;;14.88;4.18;;;;;;;;;;4940233;28;20038;-77
2023/10/11 06:47:14;;;;;;;12.68;4.47;;;;;;;;;;4972579;28;20031;-77
2023/10/11 06:49:40;;;;;;;17.98;4.80;;;;;;;;;;4973925;28;20037;-76
2023/10/11 06:52:07;;;;;;;11.80;4.43;;;;;;;;;;4973604;28;20038;-76
2023/10/11 06:54:32;;;;;;;10.32;4.13;;;;;;;;;;4973546;28;20034;-75
2023/10/11 06:56:58;;;;;;;12.90;4.47;;;;;;;;;;4956634;28;20390;-75
2023/10/11 06:59:24;;;;;;;15.73;4.70;;;;;;;;;;4956448;28;20023;-76
2023/10/11 07:01:49;;;;;;;15.75;4.32;;;;;;;;;;4973525;28;20031;-78
2023/10/11 07:04:18;;;;;;;15.98;4.97;;;;;;;;;;4955726;28;20035;-77
2023/10/11 07:06:43;;;;;;;;;;;;;;;;;;4972713;28;20035;-76
2023/10/11 07:09:19;;;;;;;15.15;4.20;;;;;;;;;;4973725;28;19916;-77
2023/10/11 07:12:18;;;;;;;10.75;4.18;;;;;;;;;;4972496;28;20027;-77
2023/10/11 07:14:41;;;;;;;17.15;4.72;;;;;;;;;;4974937;28;20030;-77
2023/10/11 07:17:08;;;;;;;14.38;4.80;;;;;;;;;;4974929;28;20041;-77
2023/10/11 07:19:36;;;;;;;10.60;3.90;;;;;;;;;;4972918;28;20118;-77
2023/10/11 07:22:04;;;;;;;16.27;4.57;;;;;;;;;;4974115;28;20070;-76
2023/10/11 07:26:56;;;;;;;11.60;4.20;;;;;;;;;;4973343;28;20058;-77
2023/10/11 07:29:22;;;;;;;14.23;4.60;;;;;;;;;;4956718;28;20110;-77
2023/10/11 07:31:51;;;;;;;13.32;4.75;;;;;;;;;;4955824;28;20486;-78
2023/10/11 07:34:18;;;;;;;10.82;4.95;;;;;;;;;;4971415;28;20082;-77
2023/10/11 07:36:45;;;;;;;11.70;4.57;;;;;;;;;;4972215;28;20082;-78
2023/10/11 07:39:15;;;;;;;16.73;5.05;;;;;;;;;;4973330;28;20047;-77
2023/10/11 07:41:42;;;;;;;11.93;4.90;;;;;;;;;;4972192;28;20532;-77
2023/10/11 07:44:10;;;;;;;14.35;4.90;;;;;;;;;;4956285;28;20038;-77
2023/10/11 07:46:37;;;;;;;11.88;4.60;;;;;;;;;;4973969;28;20031;-77
2023/10/11 07:49:04;;;;;;;16.13;4.57;;;;;;;;;;4973424;28;20034;-76
2023/10/11 07:51:30;;;;;;;13.68;4.45;;;;;;;;;;4973036;28;20254;-77
2023/10/11 07:53:55;;;;;;;13.30;4.40;;;;;;;;;;4955586;28;20097;-75
2023/10/11 07:56:21;;;;;;;14.43;4.65;;;;;;;;;;4973394;28;20394;-76
2023/10/11 07:58:47;;;;;;;10.40;3.53;;;;;;;;;;4972128;28;20031;-78
2023/10/11 08:01:30;;;;;;;15.30;4.82;;;;;;;;;;4973735;28;20030;-77
2023/10/11 08:03:57;;;;;;;10.77;4.35;;;;;;;;;;4973690;28;20106;-76
2023/10/11 08:06:25;;;;;;;14.40;4.47;;;;;;;;;;4973914;28;20041;-77
2023/10/11 08:08:51;;;;;;;;;;;;;;;;;;4973812;28;20026;-76
2023/10/11 08:11:19;;;;;;;12.18;3.97;;;;;;;;;;4956137;28;19917;-78
2023/10/11 08:13:46;;;;;;;14.05;4.10;;;;;;;;;;4973066;28;20030;-75
2023/10/11 08:16:17;;;;;;;15.88;5.65;;;;;;;;;;4973258;28;20483;-77
2023/10/11 08:18:49;;;;;;;13.15;4.40;;;;;;;;;;4972113;28;20451;-77
2023/10/11 08:21:16;;;;;;;10.68;4.32;;;;;;;;;;4972406;28;20027;-78
2023/10/11 08:23:44;;;;;;;12.95;5.85;;;;;;;;;;4974840;28;20047;-77
2023/10/11 08:26:14;;;;;;;12.25;4.00;;;;;;;;;;4976248;28;20100;-76
2023/10/11 08:28:47;;;;;;;11.93;4.47;;;;;;;;;;4976920;28;20555;-78
2023/10/11 08:31:28;;;;;;;18.83;4.47;;;;;;;;;;4975030;28;20031;-76
2023/10/11 08:33:54;;;;;;;15.77;4.18;;;;;;;;;;4976135;28;20406;-77
2023/10/11 08:36:20;;;;;;;14.10;4.47;;;;;;;;;;4976384;28;20033;-77
2023/10/11 08:38:45;;;;;;;10.70;4.35;;;;;;;;;;4976689;28;20035;-77
2023/10/11 08:41:15;;;;;;;10.13;4.03;;;;;;;;;;4976371;28;20107;-77
2023/10/11 08:43:41;;;;;;;10.93;3.90;;;;;;;;;;4974560;28;20038;-76
2023/10/11 08:46:09;;;;;;;10.85;3.85;;;;;;;;;;4976171;28;20630;-77
2023/10/11 08:48:38;;;;;;;10.98;4.07;;;;;;;;;;4976581;28;20034;-77
2023/10/11 08:51:10;;;;;;;13.07;4.28;;;;;;;;;;4976598;28;20034;-78
2023/10/11 08:53:36;;;;;;;18.70;4.90;;;;;;;;;;4974822;28;20619;-78
2023/10/11 08:56:02;;;;;;;10.52;4.00;;;;;;;;;;4975227;28;20033;-77
2023/10/11 08:58:28;;;;;;;14.27;4.38;;;;;;;;;;4975149;28;20022;-78
2023/10/11 09:00:55;;;;;;;12.60;4.22;;;;;;;;;;4958873;28;20034;-77
2023/10/11 09:03:23;;;;;;;18.38;3.70;;;;;;;;;;4975989;28;20035;-78
2023/10/11 09:05:58;;;;;;;11.55;3.70;;;;;;;;;;4976487;28;20035;-77
2023/10/11 09:08:28;;;;;;;10.88;4.30;;;;;;;;;;4978873;28;20033;-79
2023/10/11 09:11:05;;;;;;;11.05;3.60;;;;;;;;;;4978321;28;20030;-78
2023/10/11 09:13:36;;;;;;;10.33;3.60;;;;;;;;;;4978699;28;20023;-78
2023/10/11 09:16:08;;;;;;;11.00;4.10;;;;;;;;;;4979284;28;20516;-78
2023/10/11 09:18:34;;;;;;;13.95;4.78;;;;;;;;;;4976429;28;20033;-77
2023/10/11 09:21:10;;;;;;;9.68;4.20;;;;;;;;;;4974153;28;20558;-78
2023/10/11 09:23:46;;;;;;;8.43;3.85;;;;;;;;;;4973256;28;20526;-78
2023/10/11 09:26:13;;;;;;;12.02;4.13;;;;;;;;;;4973561;28;20038;-78
2023/10/11 09:28:41;;;;;;;18.85;4.90;;;;;;;;;;4974070;28;20465;-78
2023/10/11 09:31:10;;;;;;;8.98;3.35;;;;;;;;;;4975257;28;20042;-77
2023/10/11 09:33:35;;;;;;;;;;;;;;;;;;4975575;28;20370;-78
2023/10/11 09:36:06;;;;;;;11.38;3.95;;;;;;;;;;4958049;28;19910;-79
2023/10/11 09:38:38;;;;;;;11.25;3.92;;;;;;;;;;4975352;28;20040;-78
2023/10/11 09:41:08;;;;;;;14.15;3.80;;;;;;;;;;4975603;28;20038;-78
2023/10/11 09:43:44;;;;;;;12.80;3.95;;;;;;;;;;4974286;28;20108;-78
2023/10/11 09:46:11;;;;;;;11.10;3.50;;;;;;;;;;4975952;28;20023;-77
2023/10/11 09:48:43;;;;;;;12.77;4.07;;;;;;;;;;4958324;28;20081;-76
2023/10/11 09:51:13;;;;;;;14.20;4.18;;;;;;;;;;4974679;28;20074;-77
2023/10/11 09:53:41;;;;;;;15.10;4.93;;;;;;;;;;4975531;28;20046;-76
2023/10/11 09:56:21;;;;;;;20.92;3.60;;;;;;;;;;4975980;28;20043;-78
2023/10/11 09:59:10;;;;;;;10.52;4.63;;;;;;;;;;4974504;28;20114;-78
2023/10/11 10:01:41;;;;;;;12.05;3.67;;;;;;;;;;4970788;28;20121;-78
2023/10/11 10:04:09;;;;;;;11.75;3.40;;;;;;;;;;4973987;28;20026;-78
2023/10/11 10:06:34;;;;;;;12.60;4.13;;;;;;;;;;4974507;28;20030;-78
2023/10/11 10:09:16;;;;;;;10.48;3.88;;;;;;;;;;4974831;28;20125;-79
2023/10/11 10:12:09;;;;;;;15.88;3.80;;;;;;;;;;4974088;28;20031;-77
2023/10/11 10:14:41;;;;;;;9.70;4.10;;;;;;;;;;4965899;28;20123;-76
2023/10/11 10:17:10;;;;;;;12.63;3.75;;;;;;;;;;4974677;28;20109;-77
2023/10/11 10:19:39;;;;;;;15.77;4.63;;;;;;;;;;4974241;28;20102;-78
2023/10/11 10:22:09;;;;;;;10.38;3.40;;;;;;;;;;4974117;28;20423;-78
2023/10/11 10:24:35;;;;;;;10.63;4.10;;;;;;;;;;4974096;28;20026;-77
2023/10/11 10:27:20;;;;;;;11.40;4.00;;;;;;;;;;4973610;28;20121;-78
2023/10/11 10:29:59;;;;;;;16.38;4.60;;;;;;;;;;4974029;28;20035;-78
2023/10/11 10:32:25;;;;;;;8.63;3.70;;;;;;;;;;4975734;28;20126;-79
2023/10/11 10:35:11;;;;;;;12.02;3.72;;;;;;;;;;4978610;28;20484;-78
2023/10/11 10:37:46;;;;;;;13.18;4.32;;;;;;;;;;4973982;28;20031;-77
2023/10/11 10:40:27;;;;;;;12.32;3.95;;;;;;;;;;4974935;28;20053;-79
2023/10/11 10:43:19;;;;;;;16.30;4.28;;;;;;;;;;4975637;28;20220;-78
2023/10/11 10:45:49;;;;;;;16.25;4.47;;;;;;;;;;4975833;28;20041;-78
2023/10/11 10:48:23;;;;;;;13.95;3.67;;;;;;;;;;4974789;28;20437;-78
2023/10/11 10:50:52;;;;;;;16.90;4.25;;;;;;;;;;4974875;28;20042;-79
2023/10/11 10:53:18;;;;;;;11.32;3.90;;;;;;;;;;4975852;28;20027;-78
2023/10/11 10:55:44;;;;;;;14.07;3.65;;;;;;;;;;4975503;28;20025;-78
2023/10/11 10:58:19;;;;;;;21.70;4.80;;;;;;;;;;4974538;28;20390;-78
2023/10/11 11:00:51;;;;;;;9.27;3.78;;;;;;;;;;4975922;28;20037;-79
2023/10/11 11:03:20;;;;;;;16.05;3.50;;;;;;;;;;4975760;28;20041;-78
2023/10/11 11:06:12;;;;;;;9.60;4.10;;;;;;;;;;4975545;28;20034;-78
2023/10/11 11:08:39;;;;;;;15.75;4.43;;;;;;;;;;4973731;28;20099;-78
2023/10/11 11:11:25;;;;;;;12.50;3.90;;;;;;;;;;4958213;28;20041;-79
2023/10/11 11:13:51;;;;;;;16.40;4.55;;;;;;;;;;4974273;28;20078;-80
2023/10/11 11:16:22;;;;;;;11.60;4.10;;;;;;;;;;4976324;28;20114;-79
2023/10/11 11:18:47;;;;;;;13.05;3.30;;;;;;;;;;4957423;28;20104;-78
2023/10/11 11:21:17;;;;;;;12.57;3.72;;;;;;;;;;4974080;28;20487;-79
2023/10/11 11:23:44;;;;;;;11.85;3.88;;;;;;;;;;4953749;28;20066;-78
2023/10/11 11:26:15;;;;;;;11.40;3.70;;;;;;;;;;4947399;29;20554;-79
2023/10/11 11:28:44;;;;;;;12.63;3.97;;;;;;;;;;4938873;28;20059;-80
2023/10/11 11:31:43;;;;;;;11.95;3.92;;;;;;;;;;4969837;28;20034;-78
2023/10/11 11:34:26;;;;;;;10.70;3.67;;;;;;;;;;4977745;28;20047;-78
2023/10/11 11:36:59;;;;;;;10.63;3.90;;;;;;;;;;4977569;28;20031;-78
2023/10/11 11:39:36;;;;;;;14.70;3.85;;;;;;;;;;4979486;28;20069;-78
2023/10/11 11:42:07;;;;;;;16.00;3.70;;;;;;;;;;4941687;28;20035;-80
2023/10/11 11:44:33;;;;;;;11.50;3.60;;;;;;;;;;4975030;28;20336;-79
2023/10/11 11:47:05;;;;;;;11.70;3.45;;;;;;;;;;4973057;28;20077;-78
2023/10/11 11:49:33;;;;;;;11.00;3.40;;;;;;;;;;4974867;28;20034;-79
2023/10/11 11:51:58;;;;;;;12.75;3.83;;;;;;;;;;4962776;28;20029;-78
2023/10/11 11:54:28;;;;;;;10.45;3.72;;;;;;;;;;4952915;28;20070;-79
2023/10/11 11:56:54;;;;;;;10.95;3.45;;;;;;;;;;4959263;28;20030;-79
2023/10/11 11:59:23;;;;;;;10.23;3.40;;;;;;;;;;4973995;28;20495;-80
2023/10/11 12:01:53;;;;;;;12.00;3.33;;;;;;;;;;4962265;29;20027;-79
2023/10/11 12:04:37;;;;;;;12.80;3.60;;;;;;;;;;4961044;29;20054;-80
2023/10/11 12:07:09;;;;;;;14.40;3.55;;;;;;;;;;4960554;29;20427;-79
2023/10/11 12:09:35;;;;;;;13.48;3.70;;;;;;;;;;4961631;29;20066;-80
2023/10/11 12:12:03;;;;;;;8.90;3.42;;;;;;;;;;4959520;28;20067;-79
2023/10/11 12:14:29;;;;;;;9.35;3.60;;;;;;;;;;4957927;29;20467;-79
2023/10/11 12:16:55;;;;;;;13.27;3.70;;;;;;;;;;4959214;28;20058;-78
2023/10/11 12:19:22;;;;;;;11.02;3.65;;;;;;;;;;4963829;28;20511;-79
2023/10/11 12:21:49;;;;;;;14.73;3.92;;;;;;;;;;4965898;28;20078;-81
2023/10/11 12:24:15;;;;;;;11.82;3.63;;;;;;;;;;4966936;29;20132;-79
2023/10/11 12:26:42;;;;;;;12.23;3.75;;;;;;;;;;4967896;28;20035;-80
2023/10/11 12:29:09;;;;;;;14.15;3.63;;;;;;;;;;4962453;28;20039;-79
2023/10/11 12:31:38;;;;;;;14.27;3.50;;;;;;;;;;4957994;29;20098;-80
2023/10/11 12:34:09;;;;;;;11.35;3.75;;;;;;;;;;4958279;29;20035;-79
2023/10/11 12:36:42;;;;;;;12.07;4.10;;;;;;;;;;4960129;28;20086;-79
2023/10/11 12:39:08;;;;;;;10.35;3.15;;;;;;;;;;4959289;28;20107;-79
2023/10/11 12:41:36;;;;;;;8.32;3.72;;;;;;;;;;4959316;28;20042;-79
2023/10/11 12:44:02;;;;;;;12.13;3.67;;;;;;;;;;4958549;28;20035;-80
2023/10/11 12:46:28;;;;;;;12.95;3.33;;;;;;;;;;4961185;28;20031;-80
2023/10/11 12:48:56;;;;;;;15.05;4.25;;;;;;;;;;4961208;28;20046;-80
2023/10/11 12:51:23;;;;;;;11.32;3.47;;;;;;;;;;4959260;29;20110;-79
2023/10/11 12:53:49;;;;;;;12.23;3.70;;;;;;;;;;4958931;29;20047;-79
2023/10/11 12:56:14;;;;;;;7.25;3.00;;;;;;;;;;4942959;29;20023;-81
2023/10/11 12:58:40;;;;;;;11.60;3.28;;;;;;;;;;4959172;29;20066;-81
2023/10/11 13:01:11;;;;;;;13.23;4.03;;;;;;;;;;4960323;28;20027;-80
2023/10/11 13:03:40;;;;;;;11.25;3.25;;;;;;;;;;4959998;28;20503;-80
2023/10/11 13:06:09;;;;;;;14.50;4.10;;;;;;;;;;4957573;28;20045;-78
2023/10/11 13:08:37;;;;;;;8.93;3.67;;;;;;;;;;4957768;28;20038;-80
2023/10/11 13:11:05;;;;;;;9.20;3.28;;;;;;;;;;4959489;28;20027;-80
2023/10/11 13:13:31;;;;;;;12.68;3.67;;;;;;;;;;4957606;29;20086;-79
2023/10/11 13:15:59;;;;;;;11.32;3.72;;;;;;;;;;4959278;28;20027;-80
2023/10/11 13:18:26;;;;;;;;;;;;;;;;;;4957636;29;20023;-78
2023/10/11 13:20:53;;;;;;;12.70;3.47;;;;;;;;;;4957635;29;19937;-81
2023/10/11 13:23:18;;;;;;;12.52;3.85;;;;;;;;;;4942355;29;20051;-80
2023/10/11 13:25:45;;;;;;;10.48;3.42;;;;;;;;;;4957797;29;20066;-79
2023/10/11 13:28:14;;;;;;;7.90;3.75;;;;;;;;;;4941483;29;20043;-80
2023/10/11 13:30:40;;;;;;;10.20;3.50;;;;;;;;;;4942406;29;20085;-79
2023/10/11 13:33:09;;;;;;;16.08;3.85;;;;;;;;;;4960094;28;20028;-79
2023/10/11 13:35:38;;;;;;;8.07;3.53;;;;;;;;;;4957690;29;20055;-79
2023/10/11 13:38:11;;;;;;;11.02;4.05;;;;;;;;;;4957582;29;20061;-78
2023/10/11 13:40:39;;;;;;;9.95;3.42;;;;;;;;;;4957647;28;20023;-79
2023/10/11 13:43:05;;;;;;;12.15;4.05;;;;;;;;;;4925266;29;20035;-80
2023/10/11 13:45:30;;;;;;;14.60;3.38;;;;;;;;;;4942403;29;20085;-80
2023/10/11 13:47:57;;;;;;;12.68;3.75;;;;;;;;;;4958883;28;20389;-80
2023/10/11 13:50:30;;;;;;;8.38;3.55;;;;;;;;;;4957359;28;20152;-80
2023/10/11 13:52:56;;;;;;;15.18;3.20;;;;;;;;;;4958214;28;20054;-78
2023/10/11 13:55:26;;;;;;;10.18;3.80;;;;;;;;;;4959210;28;20096;-79
2023/10/11 13:57:52;;;;;;;14.43;3.42;;;;;;;;;;4975434;28;20568;-79
2023/10/11 14:03:52;;;;;;;7.07;2.60;;;;;;;;;;4966190;29;20073;-78
2023/10/11 14:06:21;;;;;;;17.00;3.83;;;;;;;;;;4963759;28;20043;-80
2023/10/11 14:08:47;;;;;;;10.48;2.50;;;;;;;;;;4958294;29;20106;-79
2023/10/11 14:11:19;;;;;;;10.90;3.20;;;;;;;;;;4960036;28;20486;-79
2023/10/11 14:13:49;;;;;;;12.43;3.25;;;;;;;;;;4956816;28;20129;-78
2023/10/11 14:16:21;;;;;;;9.88;3.22;;;;;;;;;;4941328;29;20088;-81
2023/10/11 14:18:53;;;;;;;10.77;3.10;;;;;;;;;;4956939;29;20114;-79
2023/10/11 14:21:20;;;;;;;8.68;2.70;;;;;;;;;;4955647;28;20047;-80
2023/10/11 14:23:48;;;;;;;9.15;2.60;;;;;;;;;;4957890;28;20051;-79
2023/10/11 14:26:13;;;;;;;6.78;2.75;;;;;;;;;;4940578;29;20122;-79
2023/10/11 14:28:39;;;;;;;12.77;3.30;;;;;;;;;;4956532;28;20074;-80
2023/10/11 14:31:04;;;;;;;13.52;3.67;;;;;;;;;;4956532;28;20039;-80
2023/10/11 14:33:33;;;;;;;8.07;3.05;;;;;;;;;;4956497;29;20024;-81
2023/10/11 14:35:58;;;;;;;12.88;3.25;;;;;;;;;;4958621;28;20027;-80
2023/10/11 14:38:24;;;;;;;11.68;3.20;;;;;;;;;;4957629;29;20137;-79
2023/10/11 14:40:49;;;;;;;11.00;2.97;;;;;;;;;;4959268;28;20054;-79
2023/10/11 14:43:16;;;;;;;9.27;3.20;;;;;;;;;;4960420;29;20039;-80
2023/10/11 14:45:46;;;;;;;8.27;3.33;;;;;;;;;;4950645;29;20050;-79
2023/10/11 14:48:12;;;;;;;15.60;3.65;;;;;;;;;;4967357;28;20035;-80
2023/10/11 14:50:38;;;;;;;10.98;3.70;;;;;;;;;;4970715;28;20035;-80
2023/10/11 14:53:03;;;;;;;11.93;3.53;;;;;;;;;;4972373;28;20035;-79
2023/10/11 14:55:32;;;;;;;14.93;3.38;;;;;;;;;;4971517;28;20369;-78
2023/10/11 14:57:58;;;;;;;9.15;3.08;;;;;;;;;;4976095;28;20031;-79
2023/10/11 15:00:24;;;;;;;11.98;3.05;;;;;;;;;;4975915;29;20059;-80
2023/10/11 15:02:51;;;;;;;19.33;3.50;;;;;;;;;;4974548;28;20035;-79
2023/10/11 15:05:16;;;;;;;13.13;3.45;;;;;;;;;;4971447;29;20094;-79
2023/10/11 15:07:42;;;;;;;13.13;3.63;;;;;;;;;;4968037;28;20035;-81
2023/10/11 15:10:12;;;;;;;13.40;3.20;;;;;;;;;;4956984;29;20066;-79
2023/10/11 15:12:41;;;;;;;10.95;3.50;;;;;;;;;;4957082;28;20035;-80
2023/10/11 15:15:06;;;;;;;;;;;;;;;;;;4940220;29;20098;-80
2023/10/11 15:17:31;;;;;;;13.40;3.20;;;;;;;;;;4956164;29;19910;-81
2023/10/11 15:19:57;;;;;;;10.23;3.35;;;;;;;;;;4956014;28;20403;-80
2023/10/11 15:22:22;;;;;;;9.23;3.30;;;;;;;;;;4938847;29;20454;-79
2023/10/11 15:24:48;;;;;;;9.05;2.97;;;;;;;;;;4954591;29;20042;-82
2023/10/11 15:27:15;;;;;;;12.00;3.35;;;;;;;;;;4956394;28;20024;-78
2023/10/11 15:29:40;;;;;;;9.00;3.78;;;;;;;;;;4955273;28;20039;-80
2023/10/11 15:32:06;;;;;;;11.05;3.38;;;;;;;;;;4955685;28;20031;-80
2023/10/11 15:34:32;;;;;;;12.90;3.50;;;;;;;;;;4957023;29;20087;-80
2023/10/11 15:36:57;;;;;;;15.95;3.67;;;;;;;;;;4959453;28;20079;-79
2023/10/11 15:39:26;;;;;;;10.98;3.45;;;;;;;;;;4961295;28;20118;-80
2023/10/11 15:41:55;;;;;;;12.85;3.53;;;;;;;;;;4962592;28;20063;-80
2023/10/11 15:44:22;;;;;;;11.52;3.05;;;;;;;;;;4959351;28;20514;-80
2023/10/11 15:46:48;;;;;;;13.57;3.78;;;;;;;;;;4940488;29;20491;-79
2023/10/11 15:49:13;;;;;;;12.38;3.15;;;;;;;;;;4957173;29;20094;-79